sensor_id;sensor_type;location;lat;lon;timestamp;P1;durP1;ratioP1;P2;durP2;ratioP2
830;SDS011;397;50.564;7.272;2023-07-09T00:01:57;9.80;;;8.33;;
830;SDS011;397;50.564;7.272;2023-07-09T00:04:25;9.20;;;8.30;;
830;SDS011;397;50.564;7.272;2023-07-09T00:06:54;8.83;;;7.93;;
830;SDS011;397;50.564;7.272;2023-07-09T00:09:24;10.70;;;9.10;;
830;SDS011;397;50.564;7.272;2023-07-09T00:11:52;9.67;;;7.90;;
830;SDS011;397;50.564;7.272;2023-07-09T00:14:20;10.03;;;8.73;;
830;SDS011;397;50.564;7.272;2023-07-09T00:16:47;9.53;;;8.53;;
830;SDS011;397;50.564;7.272;2023-07-09T00:19:16;8.73;;;7.73;;
830;SDS011;397;50.564;7.272;2023-07-09T00:21:47;11.30;;;9.20;;
830;SDS011;397;50.564;7.272;2023-07-09T00:24:17;11.87;;;8.83;;
830;SDS011;397;50.564;7.272;2023-07-09T00:26:44;11.07;;;8.97;;
830;SDS011;397;50.564;7.272;2023-07-09T00:29:13;8.60;;;7.70;;
830;SDS011;397;50.564;7.272;2023-07-09T00:31:42;10.87;;;8.97;;
830;SDS011;397;50.564;7.272;2023-07-09T00:34:13;9.20;;;8.30;;
830;SDS011;397;50.564;7.272;2023-07-09T00:36:43;9.70;;;8.70;;
830;SDS011;397;50.564;7.272;2023-07-09T00:39:17;10.07;;;8.30;;
830;SDS011;397;50.564;7.272;2023-07-09T00:41:48;10.23;;;7.67;;
830;SDS011;397;50.564;7.272;2023-07-09T00:49:31;9.03;;;8.00;;
830;SDS011;397;50.564;7.272;2023-07-09T00:52:01;10.77;;;8.20;;
830;SDS011;397;50.564;7.272;2023-07-09T00:54:41;10.77;;;8.50;;
830;SDS011;397;50.564;7.272;2023-07-09T00:57:13;8.67;;;7.70;;
830;SDS011;397;50.564;7.272;2023-07-09T00:59:47;8.43;;;7.53;;
830;SDS011;397;50.564;7.272;2023-07-09T01:02:16;8.80;;;7.20;;
830;SDS011;397;50.564;7.272;2023-07-09T01:04:46;8.40;;;7.60;;
830;SDS011;397;50.564;7.272;2023-07-09T01:07:14;10.63;;;7.47;;
830;SDS011;397;50.564;7.272;2023-07-09T01:09:45;8.67;;;7.60;;
830;SDS011;397;50.564;7.272;2023-07-09T01:12:14;13.73;;;7.57;;
830;SDS011;397;50.564;7.272;2023-07-09T01:14:43;8.10;;;7.30;;
830;SDS011;397;50.564;7.272;2023-07-09T01:17:13;10.53;;;8.53;;
830;SDS011;397;50.564;7.272;2023-07-09T01:19:41;9.03;;;8.13;;
830;SDS011;397;50.564;7.272;2023-07-09T01:22:17;9.27;;;7.27;;
830;SDS011;397;50.564;7.272;2023-07-09T01:27:29;11.03;;;7.90;;
830;SDS011;397;50.564;7.272;2023-07-09T01:30:03;8.13;;;7.33;;
830;SDS011;397;50.564;7.272;2023-07-09T01:32:32;12.97;;;8.40;;
830;SDS011;397;50.564;7.272;2023-07-09T01:35:01;10.20;;;7.53;;
830;SDS011;397;50.564;7.272;2023-07-09T01:37:32;10.70;;;8.50;;
830;SDS011;397;50.564;7.272;2023-07-09T01:40:02;9.73;;;7.13;;
830;SDS011;397;50.564;7.272;2023-07-09T01:42:31;10.97;;;7.53;;
830;SDS011;397;50.564;7.272;2023-07-09T01:44:59;8.70;;;7.70;;
830;SDS011;397;50.564;7.272;2023-07-09T01:47:28;12.27;;;8.80;;
830;SDS011;397;50.564;7.272;2023-07-09T01:49:56;10.63;;;7.83;;
830;SDS011;397;50.564;7.272;2023-07-09T01:52:23;9.00;;;7.00;;
830;SDS011;397;50.564;7.272;2023-07-09T01:54:53;8.87;;;7.97;;
830;SDS011;397;50.564;7.272;2023-07-09T01:57:25;9.73;;;8.73;;
830;SDS011;397;50.564;7.272;2023-07-09T02:00:04;8.90;;;8.00;;
830;SDS011;397;50.564;7.272;2023-07-09T02:02:31;10.03;;;8.10;;
830;SDS011;397;50.564;7.272;2023-07-09T02:04:58;8.73;;;7.67;;
830;SDS011;397;50.564;7.272;2023-07-09T02:07:26;8.53;;;7.73;;
830;SDS011;397;50.564;7.272;2023-07-09T02:09:54;9.93;;;8.83;;
830;SDS011;397;50.564;7.272;2023-07-09T02:12:22;9.37;;;8.50;;
830;SDS011;397;50.564;7.272;2023-07-09T02:14:49;8.30;;;7.50;;
830;SDS011;397;50.564;7.272;2023-07-09T02:17:17;9.43;;;7.27;;
830;SDS011;397;50.564;7.272;2023-07-09T02:19:44;8.73;;;6.30;;
830;SDS011;397;50.564;7.272;2023-07-09T02:22:12;8.07;;;7.20;;
830;SDS011;397;50.564;7.272;2023-07-09T02:24:39;11.80;;;8.00;;
830;SDS011;397;50.564;7.272;2023-07-09T02:27:08;7.60;;;6.33;;
830;SDS011;397;50.564;7.272;2023-07-09T02:29:36;7.33;;;6.57;;
830;SDS011;397;50.564;7.272;2023-07-09T02:32:04;10.03;;;6.70;;
830;SDS011;397;50.564;7.272;2023-07-09T02:34:32;9.53;;;7.30;;
830;SDS011;397;50.564;7.272;2023-07-09T02:37:01;7.47;;;6.70;;
830;SDS011;397;50.564;7.272;2023-07-09T02:39:28;10.00;;;7.80;;
830;SDS011;397;50.564;7.272;2023-07-09T02:41:56;12.03;;;7.43;;
830;SDS011;397;50.564;7.272;2023-07-09T02:44:23;7.63;;;6.43;;
830;SDS011;397;50.564;7.272;2023-07-09T02:46:51;8.90;;;7.07;;
830;SDS011;397;50.564;7.272;2023-07-09T02:49:18;7.63;;;6.60;;
830;SDS011;397;50.564;7.272;2023-07-09T02:51:46;10.17;;;7.53;;
830;SDS011;397;50.564;7.272;2023-07-09T02:54:13;7.80;;;7.00;;
830;SDS011;397;50.564;7.272;2023-07-09T02:56:41;9.63;;;7.43;;
830;SDS011;397;50.564;7.272;2023-07-09T02:59:08;8.20;;;7.40;;
830;SDS011;397;50.564;7.272;2023-07-09T03:01:37;8.10;;;7.00;;
830;SDS011;397;50.564;7.272;2023-07-09T03:04:05;9.90;;;6.20;;
830;SDS011;397;50.564;7.272;2023-07-09T03:06:34;8.40;;;7.13;;
830;SDS011;397;50.564;7.272;2023-07-09T03:09:03;7.97;;;6.93;;
830;SDS011;397;50.564;7.272;2023-07-09T03:11:31;8.90;;;7.47;;
830;SDS011;397;50.564;7.272;2023-07-09T03:14:00;7.53;;;6.53;;
830;SDS011;397;50.564;7.272;2023-07-09T03:16:28;7.90;;;6.40;;
830;SDS011;397;50.564;7.272;2023-07-09T03:18:58;7.73;;;6.23;;
830;SDS011;397;50.564;7.272;2023-07-09T03:21:26;9.27;;;7.27;;
830;SDS011;397;50.564;7.272;2023-07-09T03:23:54;8.30;;;7.30;;
830;SDS011;397;50.564;7.272;2023-07-09T03:26:22;7.80;;;7.00;;
830;SDS011;397;50.564;7.272;2023-07-09T03:28:54;7.87;;;6.70;;
830;SDS011;397;50.564;7.272;2023-07-09T03:31:22;8.93;;;6.47;;
830;SDS011;397;50.564;7.272;2023-07-09T03:33:50;10.43;;;7.37;;
830;SDS011;397;50.564;7.272;2023-07-09T03:36:18;8.50;;;6.97;;
830;SDS011;397;50.564;7.272;2023-07-09T03:38:47;7.10;;;6.40;;
830;SDS011;397;50.564;7.272;2023-07-09T03:41:15;8.30;;;6.80;;
830;SDS011;397;50.564;7.272;2023-07-09T03:43:42;9.17;;;7.80;;
830;SDS011;397;50.564;7.272;2023-07-09T03:46:10;10.43;;;8.00;;
830;SDS011;397;50.564;7.272;2023-07-09T03:48:37;6.60;;;5.77;;
830;SDS011;397;50.564;7.272;2023-07-09T03:51:05;6.83;;;6.13;;
830;SDS011;397;50.564;7.272;2023-07-09T03:53:33;9.50;;;6.90;;
830;SDS011;397;50.564;7.272;2023-07-09T03:56:00;11.87;;;7.10;;
830;SDS011;397;50.564;7.272;2023-07-09T03:58:28;7.63;;;6.83;;
830;SDS011;397;50.564;7.272;2023-07-09T04:00:55;9.60;;;6.33;;
830;SDS011;397;50.564;7.272;2023-07-09T04:03:23;8.87;;;7.63;;
830;SDS011;397;50.564;7.272;2023-07-09T04:05:50;7.57;;;6.60;;
830;SDS011;397;50.564;7.272;2023-07-09T04:08:18;8.50;;;7.00;;
830;SDS011;397;50.564;7.272;2023-07-09T04:10:45;8.77;;;7.00;;
830;SDS011;397;50.564;7.272;2023-07-09T04:13:13;9.20;;;6.90;;
830;SDS011;397;50.564;7.272;2023-07-09T04:15:40;10.43;;;6.70;;
830;SDS011;397;50.564;7.272;2023-07-09T04:18:08;9.17;;;6.80;;
830;SDS011;397;50.564;7.272;2023-07-09T04:20:35;7.40;;;6.60;;
830;SDS011;397;50.564;7.272;2023-07-09T04:23:03;8.83;;;6.50;;
830;SDS011;397;50.564;7.272;2023-07-09T04:25:32;8.63;;;7.57;;
830;SDS011;397;50.564;7.272;2023-07-09T04:28:08;7.70;;;6.13;;
830;SDS011;397;50.564;7.272;2023-07-09T04:30:36;9.10;;;6.80;;
830;SDS011;397;50.564;7.272;2023-07-09T04:33:05;9.33;;;7.40;;
830;SDS011;397;50.564;7.272;2023-07-09T04:35:32;9.10;;;7.63;;
830;SDS011;397;50.564;7.272;2023-07-09T04:38:00;11.00;;;6.60;;
830;SDS011;397;50.564;7.272;2023-07-09T04:40:28;9.60;;;6.57;;
830;SDS011;397;50.564;7.272;2023-07-09T04:42:55;8.00;;;6.73;;
830;SDS011;397;50.564;7.272;2023-07-09T04:45:23;7.80;;;6.40;;
830;SDS011;397;50.564;7.272;2023-07-09T04:47:50;9.50;;;7.03;;
830;SDS011;397;50.564;7.272;2023-07-09T04:50:18;7.17;;;5.70;;
830;SDS011;397;50.564;7.272;2023-07-09T04:52:46;7.70;;;6.57;;
830;SDS011;397;50.564;7.272;2023-07-09T04:55:13;11.00;;;7.13;;
830;SDS011;397;50.564;7.272;2023-07-09T04:57:42;10.77;;;6.10;;
830;SDS011;397;50.564;7.272;2023-07-09T05:00:10;8.00;;;6.40;;
830;SDS011;397;50.564;7.272;2023-07-09T05:02:38;7.33;;;6.33;;
830;SDS011;397;50.564;7.272;2023-07-09T05:05:06;8.57;;;6.93;;
830;SDS011;397;50.564;7.272;2023-07-09T05:07:33;9.03;;;7.00;;
830;SDS011;397;50.564;7.272;2023-07-09T05:10:02;10.07;;;6.90;;
830;SDS011;397;50.564;7.272;2023-07-09T05:12:29;8.60;;;7.47;;
830;SDS011;397;50.564;7.272;2023-07-09T05:14:57;9.33;;;6.77;;
830;SDS011;397;50.564;7.272;2023-07-09T05:17:25;10.30;;;8.00;;
830;SDS011;397;50.564;7.272;2023-07-09T05:19:52;7.33;;;6.63;;
830;SDS011;397;50.564;7.272;2023-07-09T05:22:20;8.60;;;7.53;;
830;SDS011;397;50.564;7.272;2023-07-09T05:24:47;10.37;;;7.83;;
830;SDS011;397;50.564;7.272;2023-07-09T05:27:15;9.20;;;8.03;;
830;SDS011;397;50.564;7.272;2023-07-09T05:29:42;9.83;;;7.33;;
830;SDS011;397;50.564;7.272;2023-07-09T05:32:10;14.20;;;9.10;;
830;SDS011;397;50.564;7.272;2023-07-09T05:34:38;9.27;;;7.07;;
830;SDS011;397;50.564;7.272;2023-07-09T05:37:05;8.33;;;7.53;;
830;SDS011;397;50.564;7.272;2023-07-09T05:39:33;10.67;;;6.90;;
830;SDS011;397;50.564;7.272;2023-07-09T05:42:00;10.13;;;8.57;;
830;SDS011;397;50.564;7.272;2023-07-09T05:44:28;8.10;;;7.30;;
830;SDS011;397;50.564;7.272;2023-07-09T05:46:55;10.20;;;7.77;;
830;SDS011;397;50.564;7.272;2023-07-09T05:49:23;9.00;;;7.20;;
830;SDS011;397;50.564;7.272;2023-07-09T05:51:50;7.73;;;6.93;;
830;SDS011;397;50.564;7.272;2023-07-09T05:54:18;8.23;;;6.87;;
830;SDS011;397;50.564;7.272;2023-07-09T05:56:45;9.53;;;7.60;;
830;SDS011;397;50.564;7.272;2023-07-09T05:59:13;10.43;;;7.57;;
830;SDS011;397;50.564;7.272;2023-07-09T06:01:40;9.00;;;7.60;;
830;SDS011;397;50.564;7.272;2023-07-09T06:04:08;8.70;;;7.87;;
830;SDS011;397;50.564;7.272;2023-07-09T06:06:37;9.40;;;8.47;;
830;SDS011;397;50.564;7.272;2023-07-09T06:09:04;10.77;;;8.00;;
830;SDS011;397;50.564;7.272;2023-07-09T06:11:32;9.60;;;7.77;;
830;SDS011;397;50.564;7.272;2023-07-09T06:13:59;9.77;;;7.00;;
830;SDS011;397;50.564;7.272;2023-07-09T06:16:28;12.27;;;7.60;;
830;SDS011;397;50.564;7.272;2023-07-09T06:18:55;10.00;;;7.50;;
830;SDS011;397;50.564;7.272;2023-07-09T06:21:23;10.43;;;7.00;;
830;SDS011;397;50.564;7.272;2023-07-09T06:23:50;9.90;;;7.23;;
830;SDS011;397;50.564;7.272;2023-07-09T06:26:18;14.43;;;8.30;;
830;SDS011;397;50.564;7.272;2023-07-09T06:28:46;9.40;;;6.97;;
830;SDS011;397;50.564;7.272;2023-07-09T06:31:14;9.50;;;8.37;;
830;SDS011;397;50.564;7.272;2023-07-09T06:33:53;8.53;;;7.63;;
830;SDS011;397;50.564;7.272;2023-07-09T06:36:20;8.37;;;6.90;;
830;SDS011;397;50.564;7.272;2023-07-09T06:38:48;9.97;;;7.13;;
830;SDS011;397;50.564;7.272;2023-07-09T06:41:15;13.80;;;7.20;;
830;SDS011;397;50.564;7.272;2023-07-09T06:43:43;7.53;;;6.83;;
830;SDS011;397;50.564;7.272;2023-07-09T06:46:12;8.97;;;6.97;;
830;SDS011;397;50.564;7.272;2023-07-09T06:48:41;8.53;;;6.40;;
830;SDS011;397;50.564;7.272;2023-07-09T06:51:08;9.00;;;6.90;;
830;SDS011;397;50.564;7.272;2023-07-09T06:53:36;7.73;;;6.77;;
830;SDS011;397;50.564;7.272;2023-07-09T06:56:05;9.73;;;6.67;;
830;SDS011;397;50.564;7.272;2023-07-09T06:58:33;8.27;;;6.00;;
830;SDS011;397;50.564;7.272;2023-07-09T07:01:03;6.77;;;5.73;;
830;SDS011;397;50.564;7.272;2023-07-09T07:03:31;8.60;;;5.90;;
830;SDS011;397;50.564;7.272;2023-07-09T07:06:00;6.17;;;5.63;;
830;SDS011;397;50.564;7.272;2023-07-09T07:08:27;7.60;;;6.00;;
830;SDS011;397;50.564;7.272;2023-07-09T07:10:56;8.13;;;6.63;;
830;SDS011;397;50.564;7.272;2023-07-09T07:13:26;7.90;;;6.50;;
830;SDS011;397;50.564;7.272;2023-07-09T07:15:54;9.80;;;6.43;;
830;SDS011;397;50.564;7.272;2023-07-09T07:18:22;9.40;;;6.17;;
830;SDS011;397;50.564;7.272;2023-07-09T07:20:49;8.07;;;6.60;;
830;SDS011;397;50.564;7.272;2023-07-09T07:23:17;7.70;;;6.13;;
830;SDS011;397;50.564;7.272;2023-07-09T07:25:45;8.60;;;6.57;;
830;SDS011;397;50.564;7.272;2023-07-09T07:28:13;8.37;;;7.10;;
830;SDS011;397;50.564;7.272;2023-07-09T07:30:41;9.40;;;6.80;;
830;SDS011;397;50.564;7.272;2023-07-09T07:33:08;11.13;;;6.27;;
830;SDS011;397;50.564;7.272;2023-07-09T07:35:37;11.30;;;6.53;;
830;SDS011;397;50.564;7.272;2023-07-09T07:38:05;8.50;;;6.73;;
830;SDS011;397;50.564;7.272;2023-07-09T07:40:32;6.60;;;5.67;;
830;SDS011;397;50.564;7.272;2023-07-09T07:43:00;9.00;;;6.63;;
830;SDS011;397;50.564;7.272;2023-07-09T07:45:27;9.30;;;6.10;;
830;SDS011;397;50.564;7.272;2023-07-09T07:47:55;8.20;;;6.37;;
830;SDS011;397;50.564;7.272;2023-07-09T07:50:22;7.93;;;6.20;;
830;SDS011;397;50.564;7.272;2023-07-09T07:52:49;10.80;;;6.30;;
830;SDS011;397;50.564;7.272;2023-07-09T07:55:17;6.40;;;5.40;;
830;SDS011;397;50.564;7.272;2023-07-09T07:57:45;7.30;;;5.90;;
830;SDS011;397;50.564;7.272;2023-07-09T08:00:13;9.00;;;6.87;;
830;SDS011;397;50.564;7.272;2023-07-09T08:02:41;8.23;;;6.00;;
830;SDS011;397;50.564;7.272;2023-07-09T08:05:09;6.77;;;5.90;;
830;SDS011;397;50.564;7.272;2023-07-09T08:07:36;8.00;;;6.70;;
830;SDS011;397;50.564;7.272;2023-07-09T08:10:04;7.80;;;6.50;;
830;SDS011;397;50.564;7.272;2023-07-09T08:12:32;8.27;;;7.13;;
830;SDS011;397;50.564;7.272;2023-07-09T08:14:59;10.80;;;5.20;;
830;SDS011;397;50.564;7.272;2023-07-09T08:17:27;7.27;;;5.80;;
830;SDS011;397;50.564;7.272;2023-07-09T08:19:54;6.57;;;5.97;;
830;SDS011;397;50.564;7.272;2023-07-09T08:22:22;12.73;;;6.70;;
830;SDS011;397;50.564;7.272;2023-07-09T08:24:49;10.30;;;6.67;;
830;SDS011;397;50.564;7.272;2023-07-09T08:27:18;8.07;;;5.80;;
830;SDS011;397;50.564;7.272;2023-07-09T08:29:46;8.73;;;7.00;;
830;SDS011;397;50.564;7.272;2023-07-09T08:32:14;7.23;;;5.90;;
830;SDS011;397;50.564;7.272;2023-07-09T08:34:41;9.27;;;7.90;;
830;SDS011;397;50.564;7.272;2023-07-09T08:37:09;7.97;;;7.13;;
830;SDS011;397;50.564;7.272;2023-07-09T08:39:36;9.20;;;7.47;;
830;SDS011;397;50.564;7.272;2023-07-09T08:42:05;7.20;;;6.50;;
830;SDS011;397;50.564;7.272;2023-07-09T08:49:58;12.23;;;7.50;;
830;SDS011;397;50.564;7.272;2023-07-09T08:52:37;8.33;;;7.10;;
830;SDS011;397;50.564;7.272;2023-07-09T08:55:14;9.33;;;7.50;;
830;SDS011;397;50.564;7.272;2023-07-09T08:57:39;7.90;;;6.90;;
830;SDS011;397;50.564;7.272;2023-07-09T09:00:13;8.37;;;6.30;;
830;SDS011;397;50.564;7.272;2023-07-09T09:03:02;7.40;;;6.37;;
830;SDS011;397;50.564;7.272;2023-07-09T09:05:20;8.17;;;7.37;;
830;SDS011;397;50.564;7.272;2023-07-09T09:07:55;10.50;;;6.83;;
830;SDS011;397;50.564;7.272;2023-07-09T09:10:33;7.60;;;6.80;;
830;SDS011;397;50.564;7.272;2023-07-09T09:13:03;10.53;;;6.90;;
830;SDS011;397;50.564;7.272;2023-07-09T09:15:32;9.23;;;7.23;;
830;SDS011;397;50.564;7.272;2023-07-09T09:18:11;8.43;;;6.97;;
830;SDS011;397;50.564;7.272;2023-07-09T09:21:21;10.23;;;7.20;;
830;SDS011;397;50.564;7.272;2023-07-09T09:23:57;7.53;;;6.03;;
830;SDS011;397;50.564;7.272;2023-07-09T09:26:28;8.13;;;7.13;;
830;SDS011;397;50.564;7.272;2023-07-09T09:29:00;9.07;;;7.70;;
830;SDS011;397;50.564;7.272;2023-07-09T09:31:29;11.73;;;6.97;;
830;SDS011;397;50.564;7.272;2023-07-09T09:33:57;8.27;;;6.80;;
830;SDS011;397;50.564;7.272;2023-07-09T09:36:25;9.60;;;8.47;;
830;SDS011;397;50.564;7.272;2023-07-09T09:38:53;10.20;;;6.90;;
830;SDS011;397;50.564;7.272;2023-07-09T09:41:22;10.87;;;7.43;;
830;SDS011;397;50.564;7.272;2023-07-09T09:43:53;8.83;;;6.63;;
830;SDS011;397;50.564;7.272;2023-07-09T09:46:22;7.10;;;6.30;;
830;SDS011;397;50.564;7.272;2023-07-09T09:48:53;9.90;;;7.70;;
830;SDS011;397;50.564;7.272;2023-07-09T09:51:22;10.50;;;6.37;;
830;SDS011;397;50.564;7.272;2023-07-09T09:53:51;13.00;;;7.97;;
830;SDS011;397;50.564;7.272;2023-07-09T09:56:43;8.47;;;7.57;;
830;SDS011;397;50.564;7.272;2023-07-09T09:59:16;9.57;;;6.47;;
830;SDS011;397;50.564;7.272;2023-07-09T10:01:56;13.20;;;7.00;;
830;SDS011;397;50.564;7.272;2023-07-09T10:04:26;8.63;;;7.30;;
830;SDS011;397;50.564;7.272;2023-07-09T10:06:59;9.13;;;7.17;;
830;SDS011;397;50.564;7.272;2023-07-09T10:09:46;10.23;;;7.10;;
830;SDS011;397;50.564;7.272;2023-07-09T10:14:58;7.53;;;6.40;;
830;SDS011;397;50.564;7.272;2023-07-09T10:17:49;7.60;;;6.50;;
830;SDS011;397;50.564;7.272;2023-07-09T10:31:00;6.23;;;5.63;;
830;SDS011;397;50.564;7.272;2023-07-09T10:39:32;7.97;;;5.43;;
830;SDS011;397;50.564;7.272;2023-07-09T10:41:58;9.50;;;6.90;;
830;SDS011;397;50.564;7.272;2023-07-09T10:44:38;9.30;;;6.00;;
830;SDS011;397;50.564;7.272;2023-07-09T10:47:10;7.63;;;5.20;;
830;SDS011;397;50.564;7.272;2023-07-09T10:49:38;6.37;;;5.67;;
830;SDS011;397;50.564;7.272;2023-07-09T10:54:59;6.20;;;5.30;;
830;SDS011;397;50.564;7.272;2023-07-09T10:57:29;5.53;;;4.60;;
830;SDS011;397;50.564;7.272;2023-07-09T11:00:01;8.13;;;5.90;;
830;SDS011;397;50.564;7.272;2023-07-09T11:02:30;7.57;;;6.00;;
830;SDS011;397;50.564;7.272;2023-07-09T11:05:00;8.17;;;6.23;;
830;SDS011;397;50.564;7.272;2023-07-09T11:07:33;8.37;;;5.60;;
830;SDS011;397;50.564;7.272;2023-07-09T11:10:26;7.30;;;5.63;;
830;SDS011;397;50.564;7.272;2023-07-09T11:13:15;5.97;;;5.37;;
830;SDS011;397;50.564;7.272;2023-07-09T11:15:45;7.63;;;6.13;;
830;SDS011;397;50.564;7.272;2023-07-09T11:18:22;8.90;;;5.33;;
830;SDS011;397;50.564;7.272;2023-07-09T11:20:56;6.63;;;4.67;;
830;SDS011;397;50.564;7.272;2023-07-09T11:23:36;10.10;;;6.33;;
830;SDS011;397;50.564;7.272;2023-07-09T11:26:11;7.10;;;5.50;;
830;SDS011;397;50.564;7.272;2023-07-09T11:28:46;10.23;;;6.10;;
830;SDS011;397;50.564;7.272;2023-07-09T11:31:18;6.10;;;5.10;;
830;SDS011;397;50.564;7.272;2023-07-09T11:33:59;6.30;;;5.70;;
830;SDS011;397;50.564;7.272;2023-07-09T11:36:46;6.10;;;5.40;;
830;SDS011;397;50.564;7.272;2023-07-09T11:39:19;7.20;;;4.60;;
830;SDS011;397;50.564;7.272;2023-07-09T11:41:48;9.93;;;5.20;;
830;SDS011;397;50.564;7.272;2023-07-09T11:44:16;6.00;;;5.03;;
830;SDS011;397;50.564;7.272;2023-07-09T11:49:43;9.80;;;6.13;;
830;SDS011;397;50.564;7.272;2023-07-09T11:52:03;7.43;;;5.97;;
830;SDS011;397;50.564;7.272;2023-07-09T11:54:40;5.90;;;5.30;;
830;SDS011;397;50.564;7.272;2023-07-09T11:57:05;7.33;;;5.80;;
830;SDS011;397;50.564;7.272;2023-07-09T11:59:37;6.20;;;4.93;;
830;SDS011;397;50.564;7.272;2023-07-09T12:02:20;6.50;;;4.63;;
830;SDS011;397;50.564;7.272;2023-07-09T12:04:49;7.67;;;5.60;;
830;SDS011;397;50.564;7.272;2023-07-09T12:07:18;5.40;;;4.50;;
830;SDS011;397;50.564;7.272;2023-07-09T12:09:49;8.90;;;5.10;;
830;SDS011;397;50.564;7.272;2023-07-09T12:12:18;6.80;;;5.53;;
830;SDS011;397;50.564;7.272;2023-07-09T12:14:50;6.63;;;5.60;;
830;SDS011;397;50.564;7.272;2023-07-09T12:17:18;11.93;;;6.47;;
830;SDS011;397;50.564;7.272;2023-07-09T12:19:47;6.13;;;4.70;;
830;SDS011;397;50.564;7.272;2023-07-09T12:22:19;6.70;;;5.50;;
830;SDS011;397;50.564;7.272;2023-07-09T12:24:48;8.40;;;6.03;;
830;SDS011;397;50.564;7.272;2023-07-09T12:27:22;7.07;;;5.27;;
830;SDS011;397;50.564;7.272;2023-07-09T12:29:56;9.07;;;5.60;;
830;SDS011;397;50.564;7.272;2023-07-09T12:32:24;6.00;;;5.40;;
830;SDS011;397;50.564;7.272;2023-07-09T12:34:53;7.83;;;5.37;;
830;SDS011;397;50.564;7.272;2023-07-09T12:37:22;29.63;;;6.53;;
830;SDS011;397;50.564;7.272;2023-07-09T12:39:52;6.20;;;4.90;;
830;SDS011;397;50.564;7.272;2023-07-09T12:42:28;6.23;;;5.10;;
830;SDS011;397;50.564;7.272;2023-07-09T12:44:53;6.73;;;5.40;;
830;SDS011;397;50.564;7.272;2023-07-09T12:47:21;9.40;;;8.43;;
830;SDS011;397;50.564;7.272;2023-07-09T12:49:51;7.30;;;5.67;;
830;SDS011;397;50.564;7.272;2023-07-09T12:52:22;12.03;;;6.73;;
830;SDS011;397;50.564;7.272;2023-07-09T12:55:00;6.80;;;5.10;;
830;SDS011;397;50.564;7.272;2023-07-09T12:57:29;7.50;;;5.40;;
830;SDS011;397;50.564;7.272;2023-07-09T12:59:57;6.00;;;5.00;;
830;SDS011;397;50.564;7.272;2023-07-09T13:02:26;6.87;;;5.77;;
830;SDS011;397;50.564;7.272;2023-07-09T13:05:02;7.80;;;4.93;;
830;SDS011;397;50.564;7.272;2023-07-09T13:07:38;9.40;;;5.03;;
830;SDS011;397;50.564;7.272;2023-07-09T13:10:07;8.33;;;5.97;;
830;SDS011;397;50.564;7.272;2023-07-09T13:12:50;7.80;;;5.27;;
830;SDS011;397;50.564;7.272;2023-07-09T13:16:00;8.57;;;5.60;;
830;SDS011;397;50.564;7.272;2023-07-09T13:18:02;9.20;;;5.20;;
830;SDS011;397;50.564;7.272;2023-07-09T13:20:32;8.70;;;5.00;;
830;SDS011;397;50.564;7.272;2023-07-09T13:23:04;8.83;;;4.67;;
830;SDS011;397;50.564;7.272;2023-07-09T13:25:33;9.83;;;5.53;;
830;SDS011;397;50.564;7.272;2023-07-09T13:28:01;8.03;;;5.33;;
830;SDS011;397;50.564;7.272;2023-07-09T13:30:29;7.57;;;6.17;;
830;SDS011;397;50.564;7.272;2023-07-09T13:32:57;8.20;;;5.03;;
830;SDS011;397;50.564;7.272;2023-07-09T13:35:25;6.70;;;5.70;;
830;SDS011;397;50.564;7.272;2023-07-09T13:37:52;8.37;;;5.73;;
830;SDS011;397;50.564;7.272;2023-07-09T13:40:20;7.63;;;5.23;;
830;SDS011;397;50.564;7.272;2023-07-09T13:42:47;5.73;;;4.53;;
830;SDS011;397;50.564;7.272;2023-07-09T13:45:16;8.83;;;5.87;;
830;SDS011;397;50.564;7.272;2023-07-09T13:47:45;8.47;;;4.73;;
830;SDS011;397;50.564;7.272;2023-07-09T13:50:14;5.93;;;4.80;;
830;SDS011;397;50.564;7.272;2023-07-09T13:52:42;9.47;;;5.50;;
830;SDS011;397;50.564;7.272;2023-07-09T13:55:20;7.03;;;5.73;;
830;SDS011;397;50.564;7.272;2023-07-09T13:57:49;8.53;;;5.87;;
830;SDS011;397;50.564;7.272;2023-07-09T14:00:18;8.03;;;5.87;;
830;SDS011;397;50.564;7.272;2023-07-09T14:02:48;6.00;;;4.83;;
830;SDS011;397;50.564;7.272;2023-07-09T14:05:16;6.70;;;4.93;;
830;SDS011;397;50.564;7.272;2023-07-09T14:07:44;8.90;;;5.40;;
830;SDS011;397;50.564;7.272;2023-07-09T14:10:14;7.63;;;5.40;;
830;SDS011;397;50.564;7.272;2023-07-09T14:12:44;7.97;;;5.20;;
830;SDS011;397;50.564;7.272;2023-07-09T14:15:15;7.50;;;4.30;;
830;SDS011;397;50.564;7.272;2023-07-09T14:17:44;7.53;;;5.90;;
830;SDS011;397;50.564;7.272;2023-07-09T14:20:13;10.13;;;5.57;;
830;SDS011;397;50.564;7.272;2023-07-09T14:22:42;9.90;;;5.30;;
830;SDS011;397;50.564;7.272;2023-07-09T14:25:14;7.07;;;4.87;;
830;SDS011;397;50.564;7.272;2023-07-09T14:27:50;7.57;;;5.70;;
830;SDS011;397;50.564;7.272;2023-07-09T14:30:21;10.93;;;5.90;;
830;SDS011;397;50.564;7.272;2023-07-09T14:32:50;8.03;;;5.60;;
830;SDS011;397;50.564;7.272;2023-07-09T14:35:19;8.10;;;5.43;;
830;SDS011;397;50.564;7.272;2023-07-09T14:37:49;7.37;;;5.67;;
830;SDS011;397;50.564;7.272;2023-07-09T14:40:18;8.83;;;5.43;;
830;SDS011;397;50.564;7.272;2023-07-09T14:42:47;9.60;;;5.70;;
830;SDS011;397;50.564;7.272;2023-07-09T14:45:21;8.13;;;5.80;;
830;SDS011;397;50.564;7.272;2023-07-09T14:47:46;6.03;;;5.20;;
830;SDS011;397;50.564;7.272;2023-07-09T14:50:14;9.43;;;5.80;;
830;SDS011;397;50.564;7.272;2023-07-09T14:52:44;24.23;;;7.03;;
830;SDS011;397;50.564;7.272;2023-07-09T14:55:16;11.80;;;5.67;;
830;SDS011;397;50.564;7.272;2023-07-09T14:57:46;8.83;;;6.03;;
830;SDS011;397;50.564;7.272;2023-07-09T15:00:19;10.30;;;5.03;;
830;SDS011;397;50.564;7.272;2023-07-09T15:02:45;11.13;;;5.50;;
830;SDS011;397;50.564;7.272;2023-07-09T15:05:16;6.63;;;4.37;;
830;SDS011;397;50.564;7.272;2023-07-09T15:07:46;7.07;;;4.77;;
830;SDS011;397;50.564;7.272;2023-07-09T15:10:14;12.00;;;4.90;;
830;SDS011;397;50.564;7.272;2023-07-09T15:12:44;8.30;;;5.17;;
830;SDS011;397;50.564;7.272;2023-07-09T15:17:43;5.73;;;4.40;;
830;SDS011;397;50.564;7.272;2023-07-09T15:20:15;8.23;;;4.17;;
830;SDS011;397;50.564;7.272;2023-07-09T15:22:44;6.07;;;4.67;;
830;SDS011;397;50.564;7.272;2023-07-09T15:25:14;14.73;;;4.67;;
830;SDS011;397;50.564;7.272;2023-07-09T15:27:43;9.00;;;4.20;;
830;SDS011;397;50.564;7.272;2023-07-09T15:30:18;6.97;;;4.73;;
830;SDS011;397;50.564;7.272;2023-07-09T15:32:48;8.13;;;4.40;;
830;SDS011;397;50.564;7.272;2023-07-09T15:35:17;6.47;;;4.40;;
830;SDS011;397;50.564;7.272;2023-07-09T15:37:46;6.73;;;4.87;;
830;SDS011;397;50.564;7.272;2023-07-09T15:40:18;8.10;;;4.87;;
830;SDS011;397;50.564;7.272;2023-07-09T15:42:50;7.00;;;5.40;;
830;SDS011;397;50.564;7.272;2023-07-09T15:45:20;10.17;;;6.17;;
830;SDS011;397;50.564;7.272;2023-07-09T15:47:50;9.97;;;6.03;;
830;SDS011;397;50.564;7.272;2023-07-09T15:50:21;9.23;;;5.17;;
830;SDS011;397;50.564;7.272;2023-07-09T15:52:51;12.07;;;7.00;;
830;SDS011;397;50.564;7.272;2023-07-09T15:57:50;7.13;;;5.77;;
830;SDS011;397;50.564;7.272;2023-07-09T16:00:25;12.00;;;7.40;;
830;SDS011;397;50.564;7.272;2023-07-09T16:02:54;13.63;;;7.37;;
830;SDS011;397;50.564;7.272;2023-07-09T16:05:25;9.17;;;6.63;;
830;SDS011;397;50.564;7.272;2023-07-09T16:07:55;18.93;;;6.70;;
830;SDS011;397;50.564;7.272;2023-07-09T16:10:24;8.20;;;5.97;;
830;SDS011;397;50.564;7.272;2023-07-09T16:12:55;12.00;;;7.17;;
830;SDS011;397;50.564;7.272;2023-07-09T16:15:24;10.80;;;7.27;;
830;SDS011;397;50.564;7.272;2023-07-09T16:17:54;11.73;;;7.47;;
830;SDS011;397;50.564;7.272;2023-07-09T16:20:23;12.10;;;7.50;;
830;SDS011;397;50.564;7.272;2023-07-09T16:22:53;8.37;;;6.67;;
830;SDS011;397;50.564;7.272;2023-07-09T16:25:30;11.23;;;8.83;;
830;SDS011;397;50.564;7.272;2023-07-09T16:27:59;16.23;;;9.67;;
830;SDS011;397;50.564;7.272;2023-07-09T16:30:27;9.93;;;8.77;;
830;SDS011;397;50.564;7.272;2023-07-09T16:32:57;11.13;;;10.10;;
830;SDS011;397;50.564;7.272;2023-07-09T16:35:27;15.73;;;11.07;;
830;SDS011;397;50.564;7.272;2023-07-09T16:37:56;14.20;;;11.17;;
830;SDS011;397;50.564;7.272;2023-07-09T16:40:24;12.60;;;11.13;;
830;SDS011;397;50.564;7.272;2023-07-09T16:42:56;14.67;;;10.90;;